Strona główna
METAR-TAF:

METAR-TAF

Lotnisko :

Chamberlain Municipal Airport

Chamberlain, Dakota Południowa, Stany Zjednoczone

Szerokość geograficzna: 43-46-00N, Długość geograficzna: 099-19-06W, wysokość: 516 m

Aktualna obserwacja pogody

Raport powstał 19 minut temu, godzina 01:15 UTC
Wiatr 13 kt od północny zachód w porywach dochodzący do 19 kt
Temperatura 5°C
Wilgotność 60%
Ciśnienie 1018 hPa
Widzialność: 16.1 km
Zachmurzenie całkowite na wysokości 4900 ft

METAR: K9V9 130115Z AUTO 32013G19KT 10SM OVC049 05/M02 A3007 RMK AO2 T00481024

czas: 20:34 (01:34 UTC)


TAF: brakujący

Obserwacja i prognoza pogody dla ponad 4000 lotnisk (raport METAR i TAF).

Dostępne stacje oznaczono żółtymi i czerwonymi punktami na mapie.

Najedź kursorem aby zobaczyć nazwę stacji.

Kliknij aby zobaczyć obserwacje i prognozy pogody.

Aby zmienić mapę: kliknij na zielony przycisk z czarnym krzyżykiem, aby powiększyć; na zielony przycisk z myślnikiem, aby pomniejszyć; na zielone strzałki, aby przejść do map sąsiednich.


METAR-TAF: